Hawkins, Texas
Current Conditions -  °F | °C
As of 2:53 PM on Saturday 25 Oct 2014 (Local Time) from KTYR Reporting Station
Clear Clear  
Wind Chill: 85°   Ceiling: Unl
Heat Index: 85°   Visibility: 10mi
Dew Point: 61°   Wind: 9mph
Humidity: 44%   Direction: 230°SW
Pressure: 30.1"   Gusts: NA
Location:  32.59°N, 95.2°W
Report Text: KTYR 251953Z 23008KT 10SM CLR 29/16 A3010 RMK AO2 SLP185 T02940161
Loading
Personal Weather Stations






























Interactive Weather Map New forecast layout! Learn more

10-Day Weather Forecast

Advertisements
Track Severe Weather on mobile